createdAt,value
2023-08-09T05:39:11.537Z,86.10
2023-08-09T05:42:13.228Z,86.20
2023-08-09T05:45:14.979Z,86.20
2023-08-09T05:48:16.913Z,86.20
2023-08-09T05:51:18.653Z,86.20
2023-08-09T05:54:20.423Z,86.10
2023-08-09T05:57:22.173Z,86.10
2023-08-09T06:00:24.928Z,86.00
2023-08-09T06:03:26.852Z,86.00
2023-08-09T06:06:28.715Z,86.10
2023-08-09T06:09:30.615Z,86.00
2023-08-09T06:12:32.290Z,85.90
2023-08-09T06:15:34.318Z,85.90
2023-08-09T06:18:36.012Z,85.70
2023-08-09T06:21:37.736Z,85.70
2023-08-09T06:24:39.451Z,85.70
2023-08-09T06:27:41.456Z,85.50
2023-08-09T06:30:44.016Z,85.50
2023-08-09T06:33:45.740Z,85.30
2023-08-09T06:36:47.427Z,84.90
2023-08-09T06:39:50.103Z,84.80
2023-08-09T06:42:51.775Z,84.50
2023-08-09T06:45:53.893Z,84.10
2023-08-09T06:48:55.656Z,84.00
2023-08-09T06:51:59.707Z,83.70
2023-08-09T06:55:01.621Z,83.30
2023-08-09T06:58:03.619Z,83.00
2023-08-09T07:01:05.403Z,82.70
2023-08-09T07:04:07.881Z,82.50
2023-08-09T07:07:10.956Z,82.20
2023-08-09T07:10:13.193Z,81.80
2023-08-09T07:13:14.942Z,81.50
2023-08-09T07:16:16.796Z,81.00
2023-08-09T07:19:18.503Z,80.60
2023-08-09T07:22:20.180Z,80.40
2023-08-09T07:25:22.143Z,80.30
2023-08-09T07:28:23.874Z,79.90
2023-08-09T07:31:26.246Z,79.80
2023-08-09T07:34:28.522Z,79.40
2023-08-09T07:37:31.235Z,78.90
2023-08-09T07:40:33.178Z,78.20
2023-08-09T07:43:34.886Z,77.50
2023-08-09T07:46:37.669Z,76.70
2023-08-09T07:49:39.361Z,76.00
2023-08-09T07:52:41.103Z,75.90
2023-08-09T07:55:42.904Z,75.60
2023-08-09T07:58:44.581Z,75.50
2023-08-09T08:01:46.347Z,75.20
2023-08-09T08:04:48.095Z,75.00
2023-08-09T08:07:50.150Z,74.60
2023-08-09T08:10:51.876Z,74.10
2023-08-09T08:13:53.613Z,73.70
2023-08-09T08:16:55.733Z,73.20
2023-08-09T08:19:59.357Z,72.90
2023-08-09T08:23:01.401Z,72.60
2023-08-09T08:26:03.197Z,72.10
2023-08-09T08:29:04.860Z,71.80
2023-08-09T08:32:07.414Z,71.40
2023-08-09T08:35:14.336Z,71.10
2023-08-09T08:38:17.129Z,70.60
2023-08-09T08:41:18.869Z,69.80
2023-08-09T08:44:20.645Z,69.30
2023-08-09T08:47:24.444Z,68.90
2023-08-09T08:50:26.468Z,68.20
2023-08-09T08:53:28.469Z,67.50
2023-08-09T08:56:30.834Z,66.90
2023-08-09T08:59:32.535Z,66.50
2023-08-09T09:02:34.250Z,66.20
2023-08-09T09:05:35.940Z,66.00
2023-08-09T09:08:45.139Z,66.00
2023-08-09T09:11:46.845Z,65.80
2023-08-09T09:14:52.682Z,65.30
2023-08-09T09:17:54.728Z,64.70
2023-08-09T09:20:56.457Z,64.50
2023-08-09T09:23:58.159Z,64.00
2023-08-09T09:26:59.841Z,63.60
2023-08-09T09:30:06.878Z,63.10
2023-08-09T09:33:10.350Z,62.70
2023-08-09T09:36:12.841Z,62.50
2023-08-09T09:39:14.679Z,62.10
2023-08-09T09:42:16.378Z,61.80
2023-08-09T09:45:27.441Z,61.50
2023-08-09T09:48:30.706Z,61.20
2023-08-09T09:51:32.510Z,61.10
2023-08-09T09:54:34.204Z,60.80
2023-08-09T09:57:36.015Z,60.50
2023-08-09T10:00:37.792Z,60.40
2023-08-09T10:03:44.006Z,60.30
2023-08-09T10:06:54.325Z,60.00
2023-08-09T10:09:56.138Z,59.70
2023-08-09T10:12:57.937Z,59.50
2023-08-09T10:16:03.232Z,59.40
2023-08-09T10:19:08.433Z,59.20
2023-08-09T10:22:12.260Z,59.20
2023-08-09T10:25:14.053Z,58.90
2023-08-09T10:28:17.021Z,58.80
2023-08-09T10:31:45.177Z,58.80
2023-08-09T10:34:47.330Z,58.70
2023-08-09T10:37:49.953Z,59.20
2023-08-09T10:40:52.984Z,59.30
2023-08-09T10:44:04.716Z,59.10
2023-08-09T10:47:15.536Z,59.00
2023-08-09T10:50:17.777Z,58.40
2023-08-09T10:53:22.852Z,58.20
2023-08-09T10:56:42.481Z,58.00
2023-08-09T10:59:44.976Z,57.40
2023-08-09T11:02:50.873Z,57.20
2023-08-09T11:05:53.205Z,57.10
2023-08-09T11:08:55.029Z,57.00
2023-08-09T11:11:56.878Z,57.10
2023-08-09T11:14:58.812Z,56.80
2023-08-09T11:18:00.729Z,56.80
2023-08-09T11:21:02.494Z,56.70
2023-08-09T11:24:04.453Z,56.50
2023-08-09T11:27:06.210Z,56.70
2023-08-09T11:30:09.615Z,56.80
2023-08-09T11:33:11.735Z,56.70
2023-08-09T11:36:13.639Z,56.50
2023-08-09T11:39:15.559Z,56.40
2023-08-09T11:42:17.350Z,56.10
2023-08-09T11:45:19.086Z,55.70
2023-08-09T11:48:30.942Z,55.50
2023-08-09T11:51:34.366Z,55.40
2023-08-09T11:54:37.528Z,55.40
2023-08-09T11:57:40.208Z,55.20
2023-08-09T12:00:42.088Z,55.00
2023-08-09T12:03:45.312Z,55.10
2023-08-09T12:06:55.126Z,54.70
2023-08-09T12:09:59.840Z,54.50
2023-08-09T12:13:01.584Z,54.70
2023-08-09T12:16:07.775Z,54.70
2023-08-09T12:19:09.635Z,54.60
2023-08-09T12:22:11.370Z,54.70
2023-08-09T12:25:13.074Z,54.60
2023-08-09T12:28:14.959Z,54.70
2023-08-09T12:31:16.644Z,54.50
2023-08-09T12:34:19.379Z,54.20
2023-08-09T12:37:21.129Z,54.00
2023-08-09T12:40:22.808Z,53.60
2023-08-09T12:43:24.553Z,53.40
2023-08-09T12:46:26.522Z,53.10
2023-08-09T12:49:28.280Z,53.20
2023-08-09T12:52:29.964Z,53.70
2023-08-09T12:55:31.857Z,54.30
2023-08-09T12:58:34.181Z,54.50
2023-08-09T13:01:36.736Z,54.60
2023-08-09T13:04:38.602Z,54.40
2023-08-09T13:07:40.381Z,54.30
2023-08-09T13:10:42.155Z,53.90
2023-08-09T13:13:43.868Z,53.50
2023-08-09T13:16:45.666Z,53.20
2023-08-09T13:19:48.582Z,52.50
2023-08-09T13:22:50.261Z,52.50
2023-08-09T13:25:52.488Z,52.40
2023-08-09T13:28:54.252Z,52.40
2023-08-09T13:31:55.989Z,52.30
2023-08-09T13:34:57.710Z,52.40
2023-08-09T13:37:59.419Z,52.10
2023-08-09T13:41:01.260Z,51.70
2023-08-09T13:44:03.098Z,51.30
2023-08-09T13:47:05.292Z,50.80
2023-08-09T13:50:07.885Z,50.80
2023-08-09T13:53:09.601Z,50.70
2023-08-09T13:56:11.558Z,50.90
2023-08-09T13:59:13.298Z,51.30
2023-08-09T14:02:15.046Z,51.40
2023-08-09T14:05:16.816Z,51.20
2023-08-09T14:08:18.686Z,50.80
2023-08-09T14:11:20.467Z,51.10
2023-08-09T14:14:22.222Z,51.00
2023-08-09T14:17:24.257Z,50.50
2023-08-09T14:20:26.079Z,50.20
2023-08-09T14:23:27.983Z,50.10
2023-08-09T14:26:30.776Z,50.10
2023-08-09T14:29:32.429Z,50.30
2023-08-09T14:32:34.169Z,50.00
2023-08-09T14:35:36.089Z,50.30
2023-08-09T14:38:38.060Z,50.10
2023-08-09T14:41:39.764Z,50.00
2023-08-09T14:44:41.524Z,49.70
2023-08-09T14:47:43.525Z,49.30
2023-08-09T14:50:45.247Z,49.10
2023-08-09T14:53:46.935Z,49.40
2023-08-09T14:56:48.742Z,49.60
2023-08-09T14:59:50.474Z,49.70
2023-08-09T15:02:52.625Z,50.00
2023-08-09T15:05:54.715Z,49.80
2023-08-09T15:08:56.402Z,49.50
2023-08-09T15:11:58.147Z,49.30
2023-08-09T15:15:02.668Z,49.10
2023-08-09T15:18:04.832Z,48.90
2023-08-09T15:21:06.615Z,49.00
2023-08-09T15:24:08.394Z,49.40
2023-08-09T15:27:10.144Z,49.10
2023-08-09T15:30:13.171Z,48.50
2023-08-09T15:33:14.914Z,47.60
2023-08-09T15:36:17.261Z,47.40
2023-08-09T15:39:18.985Z,47.00
2023-08-09T15:42:20.668Z,46.50
2023-08-09T15:45:22.595Z,45.60
2023-08-09T15:48:24.391Z,44.90
2023-08-09T15:51:26.228Z,44.60
2023-08-09T15:54:27.905Z,44.40
2023-08-09T15:57:29.734Z,44.00
2023-08-09T16:00:41.902Z,43.60
2023-08-09T16:03:51.825Z,43.20
2023-08-09T16:06:54.811Z,43.50
2023-08-09T16:09:56.566Z,44.30
2023-08-09T16:12:59.528Z,45.30
2023-08-09T16:16:04.185Z,45.90
2023-08-09T16:19:06.137Z,46.50
2023-08-09T16:22:07.996Z,46.00
2023-08-09T16:25:11.539Z,44.80
2023-08-09T16:28:13.258Z,43.60
2023-08-09T16:31:15.007Z,42.80
2023-08-09T16:34:16.792Z,42.20
2023-08-09T16:37:18.463Z,42.30
2023-08-09T16:40:20.210Z,43.20
2023-08-09T16:43:21.882Z,43.70
2023-08-09T16:46:23.851Z,44.40
2023-08-09T16:49:26.030Z,45.20
2023-08-09T16:52:27.919Z,45.80
2023-08-09T16:55:29.856Z,46.50
2023-08-09T16:58:32.202Z,47.10
2023-08-09T17:01:33.997Z,47.30
2023-08-09T17:04:37.145Z,47.40
2023-08-09T17:07:39.343Z,47.50
2023-08-09T17:10:41.032Z,47.30
2023-08-09T17:13:42.744Z,47.50
2023-08-09T17:16:46.300Z,47.80
2023-08-09T17:19:48.037Z,48.50
2023-08-09T17:22:52.154Z,49.00
2023-08-09T17:25:53.980Z,49.40
2023-08-09T17:28:55.660Z,49.40
2023-08-09T17:31:57.368Z,49.60
2023-08-09T17:35:01.077Z,49.80
2023-08-09T17:38:03.571Z,50.40
2023-08-09T17:41:05.300Z,51.20
2023-08-09T17:44:07.778Z,51.90
2023-08-09T17:47:11.190Z,52.50
2023-08-09T17:50:13.511Z,53.20
2023-08-09T17:53:15.563Z,53.80
2023-08-09T17:56:17.462Z,54.30
2023-08-09T17:59:19.227Z,54.60
2023-08-09T18:02:20.917Z,55.00
2023-08-09T18:05:22.589Z,55.50
2023-08-09T18:08:24.282Z,56.00
2023-08-09T18:11:26.050Z,56.40
2023-08-09T18:14:29.210Z,56.60
2023-08-09T18:17:32.551Z,56.80
2023-08-09T18:20:34.296Z,57.30
2023-08-09T18:23:37.132Z,57.70
2023-08-09T18:26:38.876Z,58.00
2023-08-09T18:29:40.632Z,58.30
2023-08-09T18:32:42.741Z,58.60
2023-08-09T18:35:45.780Z,59.00
2023-08-09T18:38:47.535Z,59.60
2023-08-09T18:42:08.232Z,59.90
2023-08-09T18:45:10.795Z,60.40
2023-08-09T18:48:13.574Z,60.70
2023-08-09T18:51:15.667Z,61.20
2023-08-09T18:54:17.373Z,61.50
2023-08-09T18:57:20.354Z,61.90
2023-08-09T19:00:22.119Z,62.20
2023-08-09T19:03:23.862Z,62.40
2023-08-09T19:06:25.872Z,62.70
2023-08-09T19:09:27.554Z,63.00
2023-08-09T19:12:29.388Z,63.30
2023-08-09T19:15:31.729Z,63.70
2023-08-09T19:18:35.703Z,63.90
2023-08-09T19:21:37.550Z,64.20
2023-08-09T19:24:39.272Z,64.50
2023-08-09T19:27:42.417Z,64.70
2023-08-09T19:30:44.155Z,65.00
2023-08-09T19:33:45.851Z,65.30
2023-08-09T19:36:50.546Z,65.50
2023-08-09T19:39:52.340Z,65.70
2023-08-09T19:42:54.091Z,66.00
2023-08-09T19:45:55.988Z,66.20
2023-08-09T19:48:57.795Z,66.50
2023-08-09T19:52:01.891Z,66.60
2023-08-09T19:55:03.891Z,66.80
2023-08-09T19:58:05.924Z,66.90
2023-08-09T20:01:12.062Z,67.10
2023-08-09T20:04:13.946Z,67.30
2023-08-09T20:07:15.721Z,67.40
2023-08-09T20:10:17.398Z,67.60
2023-08-09T20:13:22.396Z,67.70
2023-08-09T20:16:24.405Z,67.90
2023-08-09T20:19:26.175Z,68.10
2023-08-09T20:22:29.884Z,68.30
2023-08-09T20:25:32.576Z,68.40
2023-08-09T20:28:34.259Z,68.50
2023-08-09T20:31:35.949Z,68.60
2023-08-09T20:34:37.665Z,68.70
2023-08-09T20:37:39.367Z,68.90
2023-08-09T20:40:41.723Z,69.00
2023-08-09T20:43:43.503Z,69.00
2023-08-09T20:46:45.739Z,69.10
2023-08-09T20:49:48.135Z,69.30
2023-08-09T20:52:49.971Z,69.40
2023-08-09T20:55:52.819Z,69.50
2023-08-09T20:58:54.502Z,69.60
2023-08-09T21:01:58.060Z,69.60
2023-08-09T21:05:00.790Z,69.70
2023-08-09T21:08:02.558Z,69.70
2023-08-09T21:11:04.264Z,69.70
2023-08-09T21:14:06.003Z,69.70
2023-08-09T21:17:10.829Z,69.70
2023-08-09T21:20:12.624Z,69.70
2023-08-09T21:23:15.172Z,69.70
2023-08-09T21:26:17.215Z,69.70
2023-08-09T21:29:18.936Z,69.80
2023-08-09T21:32:20.755Z,69.80
2023-08-09T21:35:22.930Z,69.80
2023-08-09T21:38:24.644Z,70.00
2023-08-09T21:41:26.649Z,70.30
2023-08-09T21:44:28.319Z,70.40
2023-08-09T21:47:30.275Z,70.30
2023-08-09T21:50:31.989Z,70.40
2023-08-09T21:53:34.053Z,70.30
2023-08-09T21:56:36.052Z,70.40
2023-08-09T21:59:37.733Z,70.60
2023-08-09T22:02:39.769Z,70.80
2023-08-09T22:08:44.245Z,71.20
2023-08-09T22:11:48.234Z,71.20
2023-08-09T22:14:50.682Z,71.30
2023-08-09T22:17:52.596Z,71.30
2023-08-09T22:20:54.392Z,71.30
2023-08-09T22:23:56.095Z,71.30
2023-08-09T22:26:58.096Z,71.20
2023-08-09T22:30:00.513Z,71.50
2023-08-09T22:33:03.257Z,71.70
2023-08-09T22:36:05.517Z,71.80
2023-08-09T22:39:08.060Z,71.70
2023-08-09T22:42:09.762Z,71.80
2023-08-09T22:45:11.529Z,72.10
2023-08-09T22:48:13.408Z,72.10
2023-08-09T22:51:15.114Z,72.10
2023-08-09T22:54:16.855Z,72.00
2023-08-09T22:57:20.075Z,72.10
2023-08-09T23:00:22.882Z,72.20
2023-08-09T23:03:24.693Z,72.20
2023-08-09T23:06:26.617Z,72.30
2023-08-09T23:09:28.325Z,72.30
2023-08-09T23:12:30.028Z,72.30
2023-08-09T23:15:32.086Z,72.50
2023-08-09T23:18:33.890Z,72.50
2023-08-09T23:21:35.650Z,72.70
2023-08-09T23:24:37.930Z,72.80
2023-08-09T23:27:40.443Z,72.90
2023-08-09T23:30:42.181Z,73.00
2023-08-09T23:33:43.897Z,73.00
2023-08-09T23:36:45.596Z,73.00
2023-08-09T23:39:47.294Z,73.20
2023-08-09T23:42:49.079Z,73.40
2023-08-09T23:45:50.932Z,73.50
